Time;durP1;ratioP1;P1;durP2;ratioP2;P2;SDS_P1;SDS_P2;PMS_P1;PMS_P2;Temp;Humidity;BMP_temperature;BMP_pressure;BME280_temperature;BME280_humidity;BME280_pressure;Samples;Min_cycle;Max_cycle;Signal;HPM_P1;HPM_P2
2021/12/13 09:12:27;;;;;;;4.70;1.90;;;10.40;99.90;;;;;;4921930;23;20269;-73
2021/12/13 09:14:56;;;;;;;3.03;1.67;;;10.30;99.90;;;;;;4918050;29;20393;-72
2021/12/13 09:17:26;;;;;;;4.37;1.40;;;10.30;99.90;;;;;;4917042;29;20238;-72
2021/12/13 09:19:57;;;;;;;2.90;1.63;;;10.30;99.90;;;;;;4917947;29;20273;-74
2021/12/13 09:22:28;;;;;;;2.57;1.40;;;10.30;99.90;;;;;;4917749;29;20217;-72
2021/12/13 09:24:58;;;;;;;3.07;1.40;;;10.30;99.90;;;;;;4917330;29;20237;-76
2021/12/13 09:27:33;;;;;;;2.63;1.20;;;10.40;99.90;;;;;;4916578;29;20237;-73
2021/12/13 09:30:08;;;;;;;2.37;1.50;;;10.40;99.90;;;;;;4911294;29;20214;-72
2021/12/13 09:32:40;;;;;;;5.80;1.60;;;10.30;99.90;;;;;;4906492;29;20205;-73
2021/12/13 09:35:23;;;;;;;2.03;1.30;;;10.30;99.90;;;;;;4915382;29;20564;-73
2021/12/13 09:37:51;;;;;;;2.07;1.30;;;10.40;99.90;;;;;;4915345;29;20291;-72
2021/12/13 09:40:25;;;;;;;4.73;1.40;;;10.40;99.90;;;;;;4911008;29;20229;-73
2021/12/13 09:42:56;;;;;;;2.97;1.60;;;10.40;99.90;;;;;;4908883;29;20199;-73
2021/12/13 09:45:27;;;;;;;2.50;1.20;;;10.40;99.90;;;;;;4917229;29;20702;-72
2021/12/13 09:47:54;;;;;;;2.80;1.50;;;10.40;99.90;;;;;;4916186;29;20237;-71
2021/12/13 09:50:24;;;;;;;4.17;1.93;;;10.40;99.90;;;;;;4917613;29;20202;-72
2021/12/13 09:52:56;;;;;;;3.77;1.50;;;10.50;99.90;;;;;;4916491;29;20221;-72
2021/12/13 09:55:29;;;;;;;3.17;1.67;;;10.60;99.90;;;;;;4916836;29;20579;-71
2021/12/13 09:58:02;;;;;;;3.40;1.50;;;10.60;99.90;;;;;;4913134;29;20585;-71
2021/12/13 10:00:35;;;;;;;2.57;1.80;;;10.60;99.90;;;;;;4914002;29;20245;-72
2021/12/13 10:03:06;;;;;;;2.40;1.40;;;10.70;99.90;;;;;;4910052;29;20224;-72
2021/12/13 10:05:38;;;;;;;3.17;1.63;;;10.70;99.90;;;;;;4914418;29;20251;-72
2021/12/13 10:08:09;;;;;;;2.73;1.43;;;10.70;99.90;;;;;;4916235;29;20222;-72
2021/12/13 10:10:42;;;;;;;1.80;1.20;;;10.60;99.90;;;;;;4910055;29;20214;-72
2021/12/13 10:13:15;;;;;;;2.83;1.40;;;10.60;99.90;;;;;;4917549;29;20210;-71
2021/12/13 10:15:45;;;;;;;1.93;1.10;;;10.70;99.90;;;;;;4917127;29;20201;-71
2021/12/13 10:18:17;;;;;;;3.67;1.87;;;10.80;99.90;;;;;;4908294;29;20226;-74
2021/12/13 10:20:49;;;;;;;2.10;1.07;;;10.90;99.90;;;;;;4911236;29;20220;-73
2021/12/13 10:23:19;;;;;;;1.80;1.03;;;10.90;99.90;;;;;;4913999;29;20209;-73
2021/12/13 10:25:50;;;;;;;3.33;1.07;;;11.00;99.90;;;;;;4915353;29;20248;-74
2021/12/13 10:28:24;;;;;;;1.93;0.97;;;11.00;99.90;;;;;;4906744;29;20249;-73
2021/12/13 10:30:56;;;;;;;1.87;0.93;;;10.90;99.90;;;;;;4916473;29;20201;-73
2021/12/13 10:33:25;;;;;;;1.77;1.00;;;11.00;99.90;;;;;;4917326;29;20212;-73
2021/12/13 10:35:54;;;;;;;1.70;1.00;;;11.10;99.90;;;;;;4913670;29;20209;-76
2021/12/13 10:38:25;;;;;;;2.30;1.03;;;11.20;99.90;;;;;;4915478;29;20687;-76
2021/12/13 10:40:56;;;;;;;3.03;1.00;;;11.30;99.90;;;;;;4916422;29;20223;-75
2021/12/13 10:43:28;;;;;;;1.77;1.00;;;11.50;99.90;;;;;;4915395;29;20213;-72
2021/12/13 10:45:58;;;;;;;1.70;1.00;;;11.60;99.90;;;;;;4915128;29;20244;-73
2021/12/13 10:48:30;;;;;;;2.73;0.80;;;11.50;99.90;;;;;;4915467;29;20225;-75
2021/12/13 10:51:02;;;;;;;1.43;0.83;;;11.60;99.90;;;;;;4915302;29;20206;-74
2021/12/13 10:53:29;;;;;;;2.10;1.10;;;11.60;99.90;;;;;;4915321;29;20217;-73
2021/12/13 10:56:01;;;;;;;1.77;0.97;;;11.60;99.90;;;;;;4915607;29;20224;-76
2021/12/13 10:58:33;;;;;;;2.17;0.90;;;11.50;99.90;;;;;;4915397;29;20320;-75
2021/12/13 11:01:04;;;;;;;1.23;0.83;;;11.60;99.90;;;;;;4915162;29;20205;-76
2021/12/13 11:03:34;;;;;;;1.33;0.80;;;11.70;99.90;;;;;;4914906;29;20300;-74
2021/12/13 11:06:02;;;;;;;1.70;0.83;;;11.70;99.90;;;;;;4914239;29;20233;-78
2021/12/13 11:08:29;;;;;;;1.60;1.00;;;11.80;99.90;;;;;;4915101;29;20241;-75
2021/12/13 11:11:02;;;;;;;1.93;0.80;;;11.70;99.90;;;;;;4913444;29;20224;-74
2021/12/13 11:13:36;;;;;;;1.33;0.70;;;11.60;99.90;;;;;;4919378;29;20213;-76
2021/12/13 11:16:09;;;;;;;2.00;0.80;;;11.50;99.90;;;;;;4915437;29;20584;-75
2021/12/13 11:18:36;;;;;;;1.20;0.80;;;11.40;99.90;;;;;;4919104;29;20233;-78
2021/12/13 11:21:20;;;;;;;1.60;0.87;;;11.50;99.90;;;;;;4914277;29;20201;-75
2021/12/13 11:23:47;;;;;;;1.40;0.70;;;11.60;99.90;;;;;;4914889;29;20206;-75
2021/12/13 11:26:17;;;;;;;1.50;0.70;;;11.70;99.90;;;;;;4914286;29;20237;-75
2021/12/13 11:28:46;;;;;;;0.90;0.77;;;11.70;99.90;;;;;;4915049;29;20365;-74
2021/12/13 11:31:16;;;;;;;1.10;0.70;;;11.80;99.90;;;;;;4913806;29;20209;-76
2021/12/13 11:34:19;;;;;;;2.03;0.90;;;11.80;99.90;;;;;;4911339;29;20218;-75
2021/12/13 11:37:22;;;;;;;1.73;0.90;;;11.80;99.90;;;;;;4902966;29;20229;-75
2021/12/13 11:40:32;;;;;;;1.27;0.87;;;11.80;99.90;;;;;;4903055;29;20210;-75
2021/12/13 11:43:33;;;;;;;1.67;0.60;;;11.70;99.90;;;;;;4895956;29;20220;-77
2021/12/13 11:46:41;;;;;;;0.77;0.63;;;11.70;99.90;;;;;;4909536;29;20241;-76
2021/12/13 11:49:48;;;;;;;1.77;0.90;;;11.80;99.90;;;;;;4905973;29;20202;-74
2021/12/13 11:52:40;;;;;;;1.53;0.80;;;11.70;99.90;;;;;;4902351;29;20684;-73
2021/12/13 11:55:48;;;;;;;1.43;0.83;;;11.90;99.90;;;;;;4901517;29;20215;-75
2021/12/13 11:58:37;;;;;;;3.70;0.77;;;11.90;99.90;;;;;;4873729;29;20258;-74
2021/12/13 12:01:31;;;;;;;2.80;1.27;;;11.90;99.90;;;;;;4913088;29;20297;-76
2021/12/13 12:04:31;;;;;;;1.20;0.90;;;11.90;99.90;;;;;;4903226;29;20210;-74
2021/12/13 12:07:34;;;;;;;2.43;0.73;;;11.90;99.90;;;;;;4910288;29;20222;-75
2021/12/13 12:10:20;;;;;;;1.17;0.80;;;11.90;99.90;;;;;;4910695;29;20205;-75
2021/12/13 12:13:12;;;;;;;1.60;0.90;;;11.80;99.90;;;;;;4912454;29;20209;-75
2021/12/13 12:15:42;;;;;;;1.73;0.80;;;11.80;99.90;;;;;;4913666;29;20209;-72
2021/12/13 12:18:14;;;;;;;2.90;0.93;;;11.80;99.90;;;;;;4911791;29;20697;-73
2021/12/13 12:20:45;;;;;;;2.30;0.90;;;11.90;99.90;;;;;;4914752;29;20217;-73
2021/12/13 12:23:26;;;;;;;1.57;0.80;;;12.00;99.90;;;;;;4932741;29;20216;-73
2021/12/13 12:25:58;;;;;;;1.23;0.70;;;12.00;99.90;;;;;;4920864;29;20245;-73
2021/12/13 12:28:26;;;;;;;3.13;0.90;;;12.10;99.90;;;;;;4913602;29;20248;-72
2021/12/13 12:30:57;;;;;;;2.50;0.80;;;12.20;99.90;;;;;;4914043;29;20206;-74
2021/12/13 12:33:30;;;;;;;0.77;0.47;;;12.20;99.90;;;;;;4913801;29;20214;-74
2021/12/13 12:35:58;;;;;;;1.03;0.70;;;12.20;99.90;;;;;;4912797;29;20265;-73
2021/12/13 12:38:32;;;;;;;1.50;0.70;;;12.00;99.90;;;;;;4914233;29;20257;-73
2021/12/13 12:41:34;;;;;;;1.37;0.70;;;12.10;99.90;;;;;;4912003;29;20569;-73
2021/12/13 12:44:01;;;;;;;2.27;0.80;;;12.00;99.90;;;;;;4917618;29;20828;-73
2021/12/13 12:46:30;;;;;;;2.33;0.80;;;12.10;99.90;;;;;;4913002;29;20324;-72
2021/12/13 12:48:59;;;;;;;1.83;0.80;;;12.00;99.90;;;;;;4904015;29;20211;-73
2021/12/13 12:51:28;;;;;;;1.90;0.80;;;12.00;99.90;;;;;;4905487;29;20692;-73
2021/12/13 12:54:00;;;;;;;1.20;0.80;;;12.00;99.90;;;;;;4917246;29;20684;-72
2021/12/13 12:56:30;;;;;;;3.47;1.37;;;11.90;99.90;;;;;;4916375;29;20209;-73
2021/12/13 12:59:01;;;;;;;2.10;1.20;;;11.80;99.90;;;;;;4917112;29;20312;-73
2021/12/13 13:01:32;;;;;;;3.37;0.80;;;11.80;99.90;;;;;;4917214;29;20657;-74
2021/12/13 13:04:13;;;;;;;1.00;0.83;;;12.00;99.90;;;;;;4916575;29;20202;-73
2021/12/13 13:07:00;;;;;;;1.80;0.90;;;11.90;99.90;;;;;;4916958;29;20237;-74
2021/12/13 13:09:47;;;;;;;1.20;0.73;;;11.90;99.90;;;;;;4908962;29;20273;-73
2021/12/13 13:12:18;;;;;;;1.83;0.90;;;11.90;99.90;;;;;;4915822;29;20217;-74
2021/12/13 13:14:48;;;;;;;0.90;0.50;;;11.90;99.90;;;;;;4917075;29;20691;-73
2021/12/13 13:17:16;;;;;;;1.10;0.63;;;11.90;99.90;;;;;;4916755;29;20704;-74
2021/12/13 13:19:46;;;;;;;0.93;0.60;;;12.00;99.90;;;;;;4932670;29;20216;-73
2021/12/13 13:22:16;;;;;;;1.23;0.73;;;11.90;99.90;;;;;;4921326;29;20216;-72
2021/12/13 13:24:45;;;;;;;0.90;0.60;;;11.80;99.90;;;;;;4915012;29;20198;-74
2021/12/13 13:27:14;;;;;;;1.00;0.60;;;11.80;99.90;;;;;;4913203;29;20229;-73
2021/12/13 13:29:44;;;;;;;1.40;0.93;;;11.70;99.90;;;;;;4916281;29;20213;-72
2021/12/13 13:32:15;;;;;;;1.93;0.77;;;11.70;99.90;;;;;;4909279;29;20296;-72
2021/12/13 13:34:46;;;;;;;1.07;0.60;;;11.70;99.90;;;;;;4916325;29;20210;-71
2021/12/13 13:37:16;;;;;;;0.77;0.50;;;11.80;99.90;;;;;;4914955;29;20229;-73
2021/12/13 13:39:45;;;;;;;1.00;0.70;;;11.80;99.90;;;;;;4915664;29;20566;-76
2021/12/13 13:42:17;;;;;;;1.07;0.70;;;11.80;99.90;;;;;;4914396;29;20298;-75
2021/12/13 13:44:46;;;;;;;2.60;0.90;;;11.80;99.90;;;;;;4915182;29;20293;-74
2021/12/13 13:47:16;;;;;;;1.10;0.63;;;11.70;99.90;;;;;;4915292;29;20233;-75
2021/12/13 13:49:45;;;;;;;0.83;0.60;;;11.80;99.90;;;;;;4915624;29;20212;-73
2021/12/13 13:52:21;;;;;;;1.50;0.77;;;11.70;99.90;;;;;;4915688;29;20210;-73
2021/12/13 13:54:52;;;;;;;1.80;0.80;;;11.70;99.90;;;;;;4913817;29;20220;-72
2021/12/13 13:57:22;;;;;;;1.20;0.70;;;11.80;99.90;;;;;;4909840;29;20240;-73
2021/12/13 13:59:50;;;;;;;1.57;0.90;;;11.90;99.90;;;;;;4915199;29;20740;-73
2021/12/13 14:02:27;;;;;;;1.17;0.70;;;11.90;99.90;;;;;;4913923;29;20205;-73
2021/12/13 14:05:01;;;;;;;2.47;0.80;;;12.00;99.90;;;;;;4915797;29;20213;-75
2021/12/13 14:07:29;;;;;;;1.00;0.80;;;11.90;99.90;;;;;;4915595;29;20230;-73
2021/12/13 14:09:59;;;;;;;0.80;0.70;;;11.90;99.90;;;;;;4911257;29;20202;-75
2021/12/13 14:12:32;;;;;;;1.40;0.70;;;11.80;99.90;;;;;;4915125;29;20217;-75
2021/12/13 14:15:06;;;;;;;1.60;0.90;;;11.80;99.90;;;;;;4915503;29;20296;-75
2021/12/13 14:17:38;;;;;;;2.57;1.10;;;11.90;99.90;;;;;;4910079;29;20225;-74
2021/12/13 14:20:18;;;;;;;1.57;0.93;;;11.90;99.90;;;;;;4914760;29;20220;-74
2021/12/13 14:22:47;;;;;;;2.37;0.97;;;11.90;99.90;;;;;;4914424;29;20217;-74
2021/12/13 14:25:26;;;;;;;1.57;0.90;;;11.90;99.90;;;;;;4908973;29;20208;-74
2021/12/13 14:27:53;;;;;;;1.10;0.93;;;11.90;99.90;;;;;;4913749;29;20236;-74
2021/12/13 14:30:25;;;;;;;1.47;0.90;;;11.90;99.90;;;;;;4915216;29;20209;-74
2021/12/13 14:32:52;;;;;;;1.00;0.60;;;12.00;99.90;;;;;;4913794;29;20228;-76
2021/12/13 14:35:25;;;;;;;2.63;1.00;;;12.10;99.90;;;;;;4915268;29;20209;-75
2021/12/13 14:38:00;;;;;;;1.07;0.83;;;12.20;99.90;;;;;;4911468;29;20725;-74
2021/12/13 14:40:27;;;;;;;1.40;0.90;;;12.10;99.90;;;;;;4915161;29;20649;-74
2021/12/13 14:42:53;;;;;;;1.30;0.70;;;12.20;99.90;;;;;;4914909;29;20205;-74
2021/12/13 14:45:20;;;;;;;1.20;0.77;;;12.10;99.90;;;;;;4912232;29;20216;-75
2021/12/13 14:47:51;;;;;;;1.23;0.80;;;12.10;99.90;;;;;;4912531;29;20226;-74
2021/12/13 14:50:22;;;;;;;0.93;0.60;;;12.10;99.90;;;;;;4905100;29;20201;-75
2021/12/13 14:52:52;;;;;;;1.10;0.60;;;12.20;99.90;;;;;;4913875;29;20210;-74
2021/12/13 14:55:20;;;;;;;1.30;0.80;;;12.20;99.90;;;;;;4913689;29;20678;-74
2021/12/13 14:57:56;;;;;;;1.47;1.00;;;12.20;99.90;;;;;;4913545;29;20221;-74
2021/12/13 15:00:27;;;;;;;1.30;0.70;;;12.20;99.90;;;;;;4909219;29;20210;-74
2021/12/13 15:02:57;;;;;;;4.37;0.80;;;12.20;99.90;;;;;;4914925;29;20214;-75
2021/12/13 15:05:29;;;;;;;1.37;0.70;;;12.20;99.90;;;;;;4912233;29;20210;-75
2021/12/13 15:07:58;;;;;;;1.30;0.60;;;12.30;99.90;;;;;;4909962;29;20233;-74
2021/12/13 15:10:29;;;;;;;1.97;0.80;;;12.30;99.90;;;;;;4905355;29;20275;-74
2021/12/13 15:12:59;;;;;;;2.30;1.10;;;12.30;99.90;;;;;;4912897;29;20210;-73
2021/12/13 15:15:33;;;;;;;1.83;0.80;;;12.30;99.90;;;;;;4902903;29;20213;-74
2021/12/13 15:18:04;;;;;;;1.73;0.93;;;12.10;99.90;;;;;;4912721;29;20221;-75
2021/12/13 15:20:35;;;;;;;1.53;1.00;;;12.00;99.90;;;;;;4914490;29;20220;-75
2021/12/13 15:23:06;;;;;;;4.23;1.17;;;11.90;99.90;;;;;;4927396;23;20244;-68
2021/12/13 15:25:39;;;;;;;1.97;1.40;;;11.80;99.90;;;;;;4914833;29;20210;-69
2021/12/13 15:28:08;;;;;;;2.23;1.30;;;11.60;99.90;;;;;;4916267;29;20227;-78
2021/12/13 15:30:35;;;;;;;2.80;1.37;;;11.60;99.90;;;;;;4916921;29;20209;-69
2021/12/13 15:33:06;;;;;;;3.47;1.60;;;11.50;99.90;;;;;;4902053;29;20211;-70
2021/12/13 15:35:40;;;;;;;3.27;2.00;;;11.40;99.90;;;;;;4897894;29;20214;-71
2021/12/13 15:38:12;;;;;;;4.83;2.43;;;11.30;99.90;;;;;;4897453;29;20262;-70
2021/12/13 15:40:43;;;;;;;3.97;1.93;;;11.20;99.90;;;;;;4897452;29;20214;-69
2021/12/13 15:43:18;;;;;;;3.60;2.10;;;11.10;99.90;;;;;;4897421;29;20602;-71
2021/12/13 15:45:49;;;;;;;5.80;2.87;;;11.00;99.90;;;;;;4897847;29;20213;-68
2021/12/13 15:51:08;;;;;;;4.20;2.37;;;10.90;99.90;;;;;;4908882;29;20270;-70
2021/12/13 15:53:35;;;;;;;3.30;2.20;;;10.90;99.90;;;;;;4897036;29;20210;-70
2021/12/13 15:56:06;;;;;;;3.47;2.00;;;10.90;99.90;;;;;;4897025;29;20218;-70
2021/12/13 15:58:37;;;;;;;4.33;2.40;;;11.00;99.90;;;;;;4897250;29;20230;-70
2021/12/13 16:01:13;;;;;;;4.00;2.50;;;11.10;99.90;;;;;;4897041;29;20217;-70
2021/12/13 16:03:42;;;;;;;3.27;2.10;;;11.10;99.90;;;;;;4897172;29;20217;-71
2021/12/13 16:06:12;;;;;;;3.47;1.93;;;11.10;99.90;;;;;;4897089;29;20234;-70
2021/12/13 16:08:49;;;;;;;4.23;2.30;;;11.00;99.90;;;;;;4899924;29;20244;-70
2021/12/13 16:11:27;;;;;;;3.57;2.00;;;10.90;99.90;;;;;;4897059;29;20220;-69
2021/12/13 16:13:59;;;;;;;4.70;2.10;;;10.90;99.90;;;;;;4896854;29;20212;-70
2021/12/13 16:16:28;;;;;;;6.23;2.10;;;11.00;99.90;;;;;;4906229;29;20557;-70
2021/12/13 16:18:57;;;;;;;3.83;2.30;;;10.90;99.90;;;;;;4919651;29;20542;-70
2021/12/13 16:21:29;;;;;;;5.03;2.47;;;10.80;99.90;;;;;;4920266;29;20239;-69
2021/12/13 16:24:02;;;;;;;7.23;2.43;;;10.70;99.90;;;;;;4919750;29;20281;-69
2021/12/13 16:26:32;;;;;;;6.23;2.60;;;10.70;99.90;;;;;;4908825;29;20329;-71
2021/12/13 16:28:59;;;;;;;4.70;2.60;;;10.80;99.90;;;;;;4901075;29;20214;-70
2021/12/13 16:31:26;;;;;;;3.90;2.37;;;10.80;99.90;;;;;;4900473;29;20670;-70
2021/12/13 16:33:59;;;;;;;4.70;2.07;;;10.80;99.90;;;;;;4900758;29;20733;-68
2021/12/13 16:36:32;;;;;;;4.00;2.17;;;10.80;99.90;;;;;;4900878;29;20219;-68
2021/12/13 16:39:02;;;;;;;4.00;2.40;;;10.90;99.90;;;;;;4901058;29;20210;-70
2021/12/13 16:41:31;;;;;;;3.57;2.30;;;10.90;99.90;;;;;;4900943;29;20254;-69
2021/12/13 16:44:04;;;;;;;3.80;2.30;;;10.90;99.90;;;;;;4909201;29;20216;-69
2021/12/13 16:46:32;;;;;;;3.53;1.90;;;11.00;99.90;;;;;;4919507;29;20329;-69
2021/12/13 16:49:04;;;;;;;3.63;2.10;;;11.00;99.90;;;;;;4919486;29;20245;-71
2021/12/13 16:51:35;;;;;;;4.07;2.30;;;11.10;99.90;;;;;;4919819;29;20216;-69
2021/12/13 16:54:05;;;;;;;3.83;2.00;;;11.10;99.90;;;;;;4919540;29;20233;-69
2021/12/13 16:56:32;;;;;;;5.30;2.17;;;11.00;99.90;;;;;;4919064;29;20229;-68
2021/12/13 16:58:58;;;;;;;4.07;2.13;;;10.80;99.90;;;;;;4919544;29;20214;-69
2021/12/13 17:01:31;;;;;;;4.33;1.77;;;10.70;99.90;;;;;;4917130;29;20665;-69
2021/12/13 17:04:05;;;;;;;4.20;2.30;;;10.60;99.90;;;;;;4901200;29;20230;-69
2021/12/13 17:06:41;;;;;;;4.87;1.80;;;10.70;99.90;;;;;;4899969;29;20237;-71
2021/12/13 17:09:09;;;;;;;3.20;2.40;;;10.70;99.90;;;;;;4900292;29;20692;-69
2021/12/13 17:11:38;;;;;;;4.20;2.50;;;10.60;99.90;;;;;;4917573;29;20289;-71
2021/12/13 17:14:20;;;;;;;3.13;2.10;;;10.50;99.90;;;;;;4918486;29;20649;-70
2021/12/13 17:16:54;;;;;;;2.70;1.87;;;10.40;99.90;;;;;;4919150;29;20249;-68
2021/12/13 17:19:22;;;;;;;4.13;2.10;;;10.40;99.90;;;;;;4915386;29;20636;-70
2021/12/13 17:21:54;;;;;;;2.93;1.93;;;10.50;99.90;;;;;;4899785;29;20610;-70
2021/12/13 17:24:26;;;;;;;3.87;2.43;;;10.40;99.90;;;;;;4899731;29;20215;-69
2021/12/13 17:26:55;;;;;;;4.90;2.00;;;10.40;99.90;;;;;;4899597;29;20281;-70
2021/12/13 17:29:26;;;;;;;3.33;1.90;;;10.40;99.90;;;;;;4898578;29;20214;-72
2021/12/13 17:32:12;;;;;;;5.50;2.50;;;10.40;99.90;;;;;;4916652;29;20205;-70
2021/12/13 17:34:44;;;;;;;3.80;2.00;;;10.60;99.90;;;;;;4917896;29;20201;-70
2021/12/13 17:37:29;;;;;;;3.50;2.00;;;10.70;99.90;;;;;;4916067;29;20637;-70
2021/12/13 17:39:59;;;;;;;3.30;2.10;;;10.70;99.90;;;;;;4897575;29;20681;-70
2021/12/13 17:42:36;;;;;;;5.17;1.90;;;10.80;99.90;;;;;;4899502;29;20772;-69
2021/12/13 17:45:18;;;;;;;5.90;2.23;;;10.80;99.90;;;;;;4900511;29;20293;-70
2021/12/13 17:47:47;;;;;;;5.00;2.30;;;10.80;99.90;;;;;;4899133;29;20246;-69
2021/12/13 17:50:18;;;;;;;8.47;2.03;;;10.60;99.90;;;;;;4914389;29;20212;-70
2021/12/13 17:52:49;;;;;;;4.20;2.10;;;10.60;99.90;;;;;;4918067;29;20213;-67
2021/12/13 17:55:16;;;;;;;3.40;1.33;;;10.60;99.90;;;;;;4918280;29;20220;-70
2021/12/13 17:57:45;;;;;;;4.00;1.80;;;10.60;99.90;;;;;;4918156;29;20229;-73
2021/12/13 18:00:39;;;;;;;2.33;1.40;;;10.60;99.90;;;;;;4907708;29;20211;-70
2021/12/13 18:03:44;;;;;;;3.27;1.73;;;10.50;99.90;;;;;;4889679;29;20678;-69
2021/12/13 18:06:30;;;;;;;3.00;1.60;;;10.50;99.90;;;;;;4898973;29;20266;-70
2021/12/13 18:09:31;;;;;;;4.30;1.47;;;10.50;99.90;;;;;;4898805;29;20535;-69
2021/12/13 18:12:13;;;;;;;2.70;1.70;;;10.30;99.90;;;;;;4898948;29;20220;-69
2021/12/13 18:15:06;;;;;;;4.67;1.70;;;10.40;99.90;;;;;;4899118;29;20669;-71
2021/12/13 18:17:41;;;;;;;2.27;1.17;;;10.40;99.90;;;;;;4901951;29;20230;-72
2021/12/13 18:20:16;;;;;;;1.80;1.20;;;10.40;99.90;;;;;;4914665;29;20287;-71
2021/12/13 18:22:48;;;;;;;2.17;1.50;;;10.40;99.90;;;;;;4917183;29;20220;-70
2021/12/13 18:25:39;;;;;;;2.20;1.53;;;10.40;99.90;;;;;;4917453;29;20312;-71
2021/12/13 18:28:09;;;;;;;1.83;1.17;;;10.20;99.90;;;;;;4917758;29;20245;-70
2021/12/13 18:30:45;;;;;;;3.10;1.87;;;10.30;99.90;;;;;;4916728;29;20205;-70
2021/12/13 18:33:17;;;;;;;2.60;1.43;;;10.30;99.90;;;;;;4915795;29;20225;-73
2021/12/13 18:35:46;;;;;;;2.67;1.60;;;10.20;99.90;;;;;;4899112;29;20210;-70
2021/12/13 18:38:33;;;;;;;2.57;1.50;;;10.10;99.90;;;;;;4898131;29;20248;-70
2021/12/13 18:41:05;;;;;;;2.57;1.43;;;10.10;99.90;;;;;;4898048;29;20215;-69
2021/12/13 18:44:10;;;;;;;2.83;1.60;;;10.00;99.90;;;;;;4898790;29;20217;-71
2021/12/13 18:46:48;;;;;;;2.03;1.30;;;10.00;99.90;;;;;;4896953;29;20234;-71
2021/12/13 18:49:21;;;;;;;5.27;1.50;;;10.10;99.90;;;;;;4899812;29;20210;-70
2021/12/13 18:51:52;;;;;;;1.83;1.30;;;10.00;99.90;;;;;;4910195;29;20207;-70
2021/12/13 18:54:24;;;;;;;3.70;1.43;;;10.00;99.90;;;;;;4898184;29;20309;-72
2021/12/13 18:56:54;;;;;;;2.00;1.37;;;10.00;99.90;;;;;;4897887;29;20238;-69
2021/12/13 18:59:29;;;;;;;3.17;1.80;;;10.10;99.90;;;;;;4915049;29;20212;-71
2021/12/13 19:02:07;;;;;;;2.53;1.70;;;10.10;99.90;;;;;;4911785;29;20218;-73
2021/12/13 19:04:37;;;;;;;3.23;1.33;;;10.00;99.90;;;;;;4898292;29;20218;-71
2021/12/13 19:07:19;;;;;;;4.17;1.40;;;9.90;99.90;;;;;;4898290;29;20674;-70
2021/12/13 19:09:51;;;;;;;3.70;1.60;;;9.90;99.90;;;;;;4913822;29;20205;-69
2021/12/13 19:12:23;;;;;;;3.27;1.70;;;10.00;99.90;;;;;;4912694;29;20205;-69
2021/12/13 19:14:54;;;;;;;3.20;1.93;;;10.00;99.90;;;;;;4915251;29;21041;-75
2021/12/13 19:17:25;;;;;;;3.03;1.63;;;9.90;99.90;;;;;;4897730;29;20241;-73
2021/12/13 19:19:55;;;;;;;3.17;1.50;;;9.90;99.90;;;;;;4897689;29;20214;-70
2021/12/13 19:22:26;;;;;;;1.67;1.17;;;9.90;99.90;;;;;;4898096;29;20222;-71
2021/12/13 19:24:59;;;;;;;2.57;1.37;;;10.00;99.90;;;;;;4897815;29;20566;-69
2021/12/13 19:27:31;;;;;;;1.70;1.20;;;10.00;99.90;;;;;;4907756;29;20253;-73
2021/12/13 19:30:01;;;;;;;2.77;1.67;;;10.10;99.90;;;;;;4916905;29;20633;-71
2021/12/13 19:32:31;;;;;;;2.70;1.43;;;10.10;99.90;;;;;;4920546;29;20205;-70
2021/12/13 19:35:01;;;;;;;2.43;1.60;;;10.10;99.90;;;;;;4935491;29;20212;-72
2021/12/13 19:37:37;;;;;;;3.20;1.70;;;10.00;99.90;;;;;;4921236;29;20720;-72
2021/12/13 19:40:17;;;;;;;3.37;1.80;;;10.00;99.90;;;;;;4916526;29;20216;-71
2021/12/13 19:42:45;;;;;;;3.50;1.87;;;10.00;99.90;;;;;;4909300;29;20582;-72
2021/12/13 19:45:28;;;;;;;2.77;1.40;;;10.00;99.90;;;;;;4897223;29;20214;-71
2021/12/13 19:47:59;;;;;;;4.10;2.00;;;10.00;99.90;;;;;;4914260;29;20255;-70
2021/12/13 19:50:29;;;;;;;4.83;1.80;;;9.90;99.90;;;;;;4916033;29;20679;-70
2021/12/13 19:53:10;;;;;;;3.00;1.93;;;9.80;99.90;;;;;;4910519;29;20206;-70
2021/12/13 19:55:38;;;;;;;2.53;1.70;;;9.70;99.90;;;;;;4897698;29;20206;-71
2021/12/13 19:58:10;;;;;;;3.07;1.53;;;9.70;99.90;;;;;;4915096;29;20229;-69
2021/12/13 20:00:40;;;;;;;4.03;1.33;;;9.80;99.90;;;;;;4911167;29;20238;-69
2021/12/13 20:03:10;;;;;;;2.90;1.40;;;9.80;99.90;;;;;;4902024;29;20210;-69
2021/12/13 20:05:41;;;;;;;2.77;1.67;;;9.90;99.90;;;;;;4912081;29;20231;-70
2021/12/13 20:08:16;;;;;;;3.03;1.67;;;9.80;99.90;;;;;;4903928;29;20253;-77
2021/12/13 20:10:47;;;;;;;2.63;1.50;;;9.90;99.90;;;;;;4913972;29;20295;-67
2021/12/13 20:13:24;;;;;;;3.33;1.20;;;9.80;99.90;;;;;;4912155;29;20590;-68
2021/12/13 20:15:57;;;;;;;3.97;1.40;;;9.70;99.90;;;;;;4915257;29;20209;-73
2021/12/13 20:18:31;;;;;;;3.00;1.20;;;9.70;99.90;;;;;;4916020;29;20233;-69
2021/12/13 20:21:01;;;;;;;1.90;1.13;;;9.70;99.90;;;;;;4915691;29;20557;-68
2021/12/13 20:23:38;;;;;;;3.47;1.30;;;9.70;99.90;;;;;;4915000;29;20216;-75
2021/12/13 20:26:12;;;;;;;2.23;1.30;;;9.70;99.90;;;;;;4914887;29;20206;-66
2021/12/13 20:28:44;;;;;;;2.53;1.30;;;9.70;99.90;;;;;;4915744;29;20241;-70
2021/12/13 20:31:21;;;;;;;1.23;0.87;;;9.60;99.90;;;;;;4915712;29;20228;-75
2021/12/13 20:33:51;;;;;;;2.40;1.20;;;9.60;99.90;;;;;;4915141;29;20304;-69
2021/12/13 20:36:23;;;;;;;1.47;1.03;;;9.80;99.90;;;;;;4914792;29;20205;-75
2021/12/13 20:38:53;;;;;;;2.60;0.83;;;9.80;99.90;;;;;;4911827;29;20307;-68
2021/12/13 20:41:27;;;;;;;1.40;1.13;;;9.80;99.90;;;;;;4905983;29;20202;-68
2021/12/13 20:43:59;;;;;;;1.87;1.00;;;10.00;99.90;;;;;;4894825;29;20231;-75
2021/12/13 20:46:29;;;;;;;2.27;0.90;;;9.90;99.90;;;;;;4894797;29;20882;-72
2021/12/13 20:49:01;;;;;;;1.70;0.80;;;9.90;99.90;;;;;;4909438;29;20692;-68
2021/12/13 20:51:32;;;;;;;1.47;0.90;;;10.10;99.90;;;;;;4914818;29;20214;-69
2021/12/13 20:54:00;;;;;;;1.37;1.00;;;10.10;99.90;;;;;;4914742;29;20673;-69
2021/12/13 20:56:29;;;;;;;1.20;0.90;;;10.20;99.90;;;;;;4908813;29;20201;-73
2021/12/13 20:59:02;;;;;;;1.83;0.90;;;10.10;99.90;;;;;;4915540;29;20209;-70
2021/12/13 21:01:34;;;;;;;1.77;0.90;;;10.10;99.90;;;;;;4915054;29;20210;-73
2021/12/13 21:04:05;;;;;;;1.90;0.93;;;10.10;99.90;;;;;;4912966;29;20220;-74
2021/12/13 21:06:35;;;;;;;1.60;0.90;;;10.10;99.90;;;;;;4915319;29;20248;-72
2021/12/13 21:09:12;;;;;;;2.20;1.00;;;10.00;99.90;;;;;;4914968;29;20275;-69
2021/12/13 21:11:48;;;;;;;1.73;1.17;;;10.00;99.90;;;;;;4914198;29;20206;-68
2021/12/13 21:14:19;;;;;;;2.27;1.30;;;9.90;99.90;;;;;;4916733;29;20212;-70
2021/12/13 21:16:51;;;;;;;2.90;0.97;;;9.90;99.90;;;;;;4905202;29;20214;-73
2021/12/13 21:19:21;;;;;;;2.43;1.60;;;9.80;99.90;;;;;;4916570;29;20622;-68
2021/12/13 21:21:51;;;;;;;1.90;1.10;;;9.90;99.90;;;;;;4916413;29;20201;-75
2021/12/13 21:24:26;;;;;;;5.37;1.27;;;9.90;99.90;;;;;;4906681;29;20653;-68
2021/12/13 21:26:57;;;;;;;3.57;1.10;;;9.90;99.90;;;;;;4917170;29;20231;-75
2021/12/13 21:29:28;;;;;;;1.10;0.90;;;9.90;99.90;;;;;;4916673;29;20237;-72
2021/12/13 21:31:59;;;;;;;1.10;0.70;;;9.80;99.90;;;;;;4906599;29;20569;-70
2021/12/13 21:34:34;;;;;;;0.90;0.70;;;9.70;99.90;;;;;;4909315;29;20210;-67
2021/12/13 21:40:09;;;;;;;1.77;0.80;;;9.80;99.90;;;;;;4912956;29;20770;-69
2021/12/13 21:42:37;;;;;;;1.03;0.80;;;9.70;99.90;;;;;;4916485;29;20220;-67
2021/12/13 21:45:17;;;;;;;0.80;0.60;;;9.60;99.90;;;;;;4916739;29;20202;-67
2021/12/13 21:47:48;;;;;;;1.60;0.70;;;9.60;99.90;;;;;;4916473;29;20276;-70
2021/12/13 21:50:22;;;;;;;2.90;0.90;;;9.70;99.90;;;;;;4917595;29;20206;-68
2021/12/13 21:52:52;;;;;;;1.60;1.03;;;9.70;99.90;;;;;;4915771;29;20673;-75
2021/12/13 21:55:26;;;;;;;2.70;0.90;;;9.80;99.90;;;;;;4911998;29;20208;-66
2021/12/13 21:57:56;;;;;;;1.70;1.10;;;9.90;99.90;;;;;;4917574;29;20235;-68
2021/12/13 22:00:32;;;;;;;2.10;1.10;;;9.90;99.90;;;;;;4898832;29;20206;-67
2021/12/13 22:03:00;;;;;;;1.67;1.20;;;9.70;99.90;;;;;;4911103;29;20205;-68
2021/12/13 22:05:31;;;;;;;1.10;0.90;;;9.70;99.90;;;;;;4907586;29;20201;-68
2021/12/13 22:08:01;;;;;;;1.30;1.00;;;9.70;99.90;;;;;;4917465;29;20236;-70
2021/12/13 22:10:31;;;;;;;2.30;1.30;;;9.50;99.90;;;;;;4916638;29;20208;-68
2021/12/13 22:13:03;;;;;;;1.13;0.90;;;9.50;99.90;;;;;;4917304;29;20216;-69
2021/12/13 22:15:35;;;;;;;1.93;1.30;;;9.60;99.90;;;;;;4917021;29;20213;-69
2021/12/13 22:18:10;;;;;;;1.80;1.23;;;9.70;99.90;;;;;;4917630;29;20230;-70
2021/12/13 22:20:40;;;;;;;2.10;1.37;;;9.80;99.90;;;;;;4904036;29;20296;-75
2021/12/13 22:23:11;;;;;;;2.30;1.50;;;9.70;99.90;;;;;;4917509;29;20580;-68
2021/12/13 22:25:40;;;;;;;2.30;1.40;;;9.70;99.90;;;;;;4917738;29;20202;-69
2021/12/13 22:28:10;;;;;;;1.97;1.30;;;9.70;99.90;;;;;;4916862;29;20233;-69
2021/12/13 22:30:45;;;;;;;1.60;1.30;;;9.70;99.90;;;;;;4911371;29;20207;-66
2021/12/13 22:33:15;;;;;;;2.40;1.77;;;9.80;99.90;;;;;;4911578;29;20283;-67
2021/12/13 22:35:45;;;;;;;4.33;1.60;;;9.70;99.90;;;;;;4917059;29;20213;-67
2021/12/13 22:38:14;;;;;;;2.40;1.63;;;9.70;99.90;;;;;;4916160;29;20236;-67